createdAt,value
2023-02-24T00:01:37.229Z,25.10
2023-02-24T00:04:13.417Z,23.00
2023-02-24T00:06:45.901Z,20.30
2023-02-24T00:09:22.675Z,24.20
2023-02-24T00:12:16.163Z,19.00
2023-02-24T00:14:48.986Z,16.57
2023-02-24T00:17:20.949Z,16.00
2023-02-24T00:19:57.635Z,17.08
2023-02-24T00:22:30.284Z,21.05
2023-02-24T00:25:04.301Z,18.92
2023-02-24T00:27:36.202Z,19.27
2023-02-24T00:30:12.370Z,16.85
2023-02-24T00:32:44.752Z,18.33
2023-02-24T00:35:17.756Z,22.90
2023-02-24T00:37:51.690Z,18.35
2023-02-24T00:40:24.467Z,20.87
2023-02-24T00:42:56.817Z,20.00
2023-02-24T00:45:31.203Z,17.27
2023-02-24T00:48:04.989Z,18.17
2023-02-24T00:50:39.038Z,18.20
2023-02-24T00:53:12.173Z,25.40
2023-02-24T00:55:44.450Z,19.17
2023-02-24T00:58:19.854Z,20.13
2023-02-24T01:00:52.262Z,25.77
2023-02-24T01:03:26.476Z,21.17
2023-02-24T01:06:03.720Z,19.57
2023-02-24T01:08:47.716Z,19.65
2023-02-24T01:11:56.782Z,19.30
2023-02-24T01:14:32.590Z,19.20
2023-02-24T01:17:09.965Z,19.17
2023-02-24T01:19:44.259Z,13.83
2023-02-24T01:22:20.116Z,16.77
2023-02-24T01:24:52.230Z,18.02
2023-02-24T01:27:24.985Z,17.13
2023-02-24T01:29:57.742Z,19.42
2023-02-24T01:32:32.354Z,20.40
2023-02-24T01:35:04.719Z,21.92
2023-02-24T01:37:37.068Z,23.55
2023-02-24T01:40:20.672Z,22.90
2023-02-24T01:42:53.378Z,17.52
2023-02-24T01:45:30.346Z,21.80
2023-02-24T01:48:07.083Z,21.70
2023-02-24T01:50:39.535Z,19.15
2023-02-24T01:53:12.495Z,17.73
2023-02-24T01:55:49.898Z,19.20
2023-02-24T01:58:29.549Z,20.33
2023-02-24T02:01:08.594Z,18.98
2023-02-24T02:03:42.659Z,21.60
2023-02-24T02:06:18.176Z,23.00
2023-02-24T02:08:50.819Z,23.30
2023-02-24T02:11:23.665Z,20.83
2023-02-24T02:13:57.325Z,17.23
2023-02-24T02:17:25.241Z,18.90
2023-02-24T02:20:16.061Z,18.17
2023-02-24T02:24:00.129Z,19.55
2023-02-24T02:27:20.976Z,19.27
2023-02-24T02:30:06.569Z,18.65
2023-02-24T02:33:04.684Z,19.25
2023-02-24T02:36:01.033Z,15.30
2023-02-24T02:38:47.386Z,15.55
2023-02-24T02:41:48.735Z,19.57
2023-02-24T02:44:44.981Z,21.05
2023-02-24T02:47:25.619Z,15.85
2023-02-24T02:50:13.097Z,22.48
2023-02-24T02:52:58.794Z,14.38
2023-02-24T02:55:42.571Z,19.77
2023-02-24T02:58:23.549Z,19.08
2023-02-24T03:01:03.501Z,15.82
2023-02-24T03:03:41.335Z,17.65
2023-02-24T03:06:44.743Z,19.58
2023-02-24T03:09:24.660Z,17.03
2023-02-24T03:12:04.981Z,12.85
2023-02-24T03:14:46.020Z,20.13
2023-02-24T03:17:24.922Z,15.55
2023-02-24T03:20:17.509Z,15.52
2023-02-24T03:23:09.813Z,22.30
2023-02-24T03:25:59.270Z,16.23
2023-02-24T03:28:43.306Z,17.48
2023-02-24T03:31:44.271Z,18.38
2023-02-24T03:34:29.068Z,16.88
2023-02-24T03:37:02.409Z,16.10
2023-02-24T03:39:36.961Z,21.10
2023-02-24T03:42:23.951Z,19.45
2023-02-24T03:44:58.245Z,16.55
2023-02-24T03:47:33.526Z,13.27
2023-02-24T03:50:16.998Z,14.10
2023-02-24T03:53:36.816Z,19.92
2023-02-24T03:56:59.749Z,18.55
2023-02-24T04:00:20.011Z,20.35
2023-02-24T04:03:49.254Z,16.60
2023-02-24T04:06:58.025Z,13.73
2023-02-24T04:09:44.173Z,19.58
2023-02-24T04:13:21.557Z,18.80
2023-02-24T04:16:03.262Z,19.77
2023-02-24T04:18:35.921Z,18.13
2023-02-24T04:21:08.742Z,17.27
2023-02-24T04:23:44.871Z,18.25
2023-02-24T04:26:18.716Z,14.20
2023-02-24T04:28:52.010Z,20.83
2023-02-24T04:31:28.108Z,20.25
2023-02-24T04:34:01.916Z,15.67
2023-02-24T04:36:41.632Z,16.67
2023-02-24T04:39:16.380Z,17.08
2023-02-24T04:41:49.767Z,17.02
2023-02-24T04:44:22.381Z,13.68
2023-02-24T04:46:55.986Z,17.43
2023-02-24T04:49:28.387Z,16.90
2023-02-24T04:52:00.468Z,17.83
2023-02-24T04:54:35.230Z,15.63
2023-02-24T04:57:07.890Z,15.60
2023-02-24T04:59:41.102Z,17.90
2023-02-24T05:02:18.186Z,16.77
2023-02-24T05:07:47.710Z,19.02
2023-02-24T05:10:20.311Z,13.32
2023-02-24T05:12:54.105Z,17.53
2023-02-24T05:15:33.336Z,15.65
2023-02-24T05:18:08.752Z,14.73
2023-02-24T05:21:11.235Z,16.27
2023-02-24T05:23:47.102Z,19.45
2023-02-24T05:26:22.008Z,16.53
2023-02-24T05:28:56.819Z,18.80
2023-02-24T05:31:31.042Z,12.90
2023-02-24T05:34:08.692Z,15.38
2023-02-24T05:36:40.846Z,19.17
2023-02-24T05:39:19.557Z,20.00
2023-02-24T05:41:55.039Z,16.63
2023-02-24T05:44:27.419Z,14.52
2023-02-24T05:46:59.857Z,18.55
2023-02-24T05:49:35.045Z,17.67
2023-02-24T05:52:09.614Z,21.50
2023-02-24T05:54:45.428Z,22.83
2023-02-24T05:57:21.160Z,18.65
2023-02-24T05:59:56.212Z,15.20
2023-02-24T06:02:29.599Z,15.73
2023-02-24T06:05:04.374Z,15.37
2023-02-24T06:07:37.825Z,17.20
2023-02-24T06:10:11.172Z,17.33
2023-02-24T06:12:43.648Z,20.15
2023-02-24T06:15:16.829Z,13.85
2023-02-24T06:17:49.588Z,16.03
2023-02-24T06:20:27.158Z,17.67
2023-02-24T06:22:59.311Z,16.15
2023-02-24T06:25:33.756Z,16.63
2023-02-24T06:28:06.981Z,14.43
2023-02-24T06:30:39.681Z,17.57
2023-02-24T06:33:12.801Z,17.00
2023-02-24T06:35:45.174Z,14.85
2023-02-24T06:38:18.828Z,13.32
2023-02-24T06:40:52.541Z,14.48
2023-02-24T06:43:25.638Z,19.30
2023-02-24T06:45:58.048Z,16.17
2023-02-24T06:48:29.955Z,15.82
2023-02-24T06:51:14.623Z,20.48
2023-02-24T06:53:46.595Z,16.50
2023-02-24T06:56:20.961Z,20.70
2023-02-24T06:58:56.257Z,13.43
2023-02-24T07:01:30.884Z,16.08
2023-02-24T07:04:07.538Z,21.73
2023-02-24T07:06:42.608Z,14.77
2023-02-24T07:09:17.328Z,14.67
2023-02-24T07:11:53.361Z,16.88
2023-02-24T07:14:29.241Z,15.45
2023-02-24T07:17:02.544Z,12.25
2023-02-24T07:19:34.994Z,20.50
2023-02-24T07:22:12.711Z,20.43
2023-02-24T07:24:46.302Z,16.42
2023-02-24T07:27:28.244Z,26.17
2023-02-24T07:30:05.991Z,14.27
2023-02-24T07:32:41.143Z,12.20
2023-02-24T07:35:14.468Z,17.60
2023-02-24T07:37:49.027Z,12.73
2023-02-24T07:40:22.277Z,16.63
2023-02-24T07:42:57.495Z,12.02
2023-02-24T07:45:29.932Z,19.58
2023-02-24T07:48:03.792Z,19.03
2023-02-24T07:50:36.121Z,14.10
2023-02-24T07:53:09.931Z,19.50
2023-02-24T07:55:42.863Z,20.13
2023-02-24T07:58:14.823Z,13.75
2023-02-24T08:01:00.031Z,17.53
2023-02-24T08:03:33.137Z,20.98
2023-02-24T08:06:27.481Z,19.65
2023-02-24T08:09:46.058Z,21.33
2023-02-24T08:12:23.219Z,16.08
2023-02-24T08:15:01.039Z,17.10
2023-02-24T08:17:33.310Z,18.65
2023-02-24T08:20:15.582Z,14.88
2023-02-24T08:22:53.735Z,18.55
2023-02-24T08:25:36.417Z,16.00
2023-02-24T08:28:11.603Z,15.37
2023-02-24T08:30:46.422Z,22.33
2023-02-24T08:33:22.113Z,15.88
2023-02-24T08:36:02.947Z,17.23
2023-02-24T08:38:42.516Z,12.68
2023-02-24T08:41:18.701Z,19.37
2023-02-24T08:43:50.729Z,20.05
2023-02-24T08:46:27.096Z,20.83
2023-02-24T08:49:09.746Z,19.40
2023-02-24T08:51:44.522Z,20.15
2023-02-24T08:54:32.050Z,20.73
2023-02-24T08:57:10.506Z,19.92
2023-02-24T08:59:49.782Z,21.90
2023-02-24T09:02:27.673Z,16.80
2023-02-24T09:05:14.015Z,19.73
2023-02-24T09:07:55.672Z,20.23
2023-02-24T09:10:28.616Z,20.73
2023-02-24T09:13:01.900Z,22.20
2023-02-24T09:15:41.432Z,18.27
2023-02-24T09:18:14.756Z,20.88
2023-02-24T09:20:58.046Z,22.10
2023-02-24T09:23:31.296Z,20.90
2023-02-24T09:26:11.047Z,17.73
2023-02-24T09:28:55.323Z,18.92
2023-02-24T09:31:40.561Z,23.50
2023-02-24T09:34:19.179Z,19.00
2023-02-24T09:37:03.713Z,21.45
2023-02-24T09:39:55.671Z,19.08
2023-02-24T09:42:46.972Z,23.85
2023-02-24T09:45:34.200Z,24.70
2023-02-24T09:48:23.465Z,20.40
2023-02-24T09:51:05.295Z,23.80
2023-02-24T09:53:41.901Z,22.27
2023-02-24T09:56:43.156Z,20.85
2023-02-24T09:59:27.931Z,23.05
2023-02-24T10:02:19.373Z,24.83
2023-02-24T10:05:29.233Z,22.70
2023-02-24T10:08:02.070Z,29.63
2023-02-24T10:10:38.750Z,23.23
2023-02-24T10:13:30.892Z,25.73
2023-02-24T10:16:09.621Z,27.33
2023-02-24T10:19:01.896Z,24.63
2023-02-24T10:22:00.436Z,29.50
2023-02-24T10:24:49.900Z,22.88
2023-02-24T10:27:30.088Z,29.75
2023-02-24T10:30:20.749Z,27.07
2023-02-24T10:32:58.755Z,24.65
2023-02-24T10:35:35.749Z,28.85
2023-02-24T10:38:08.656Z,26.38
2023-02-24T10:40:57.113Z,25.80
2023-02-24T10:43:31.781Z,25.23
2023-02-24T10:46:07.525Z,24.50
2023-02-24T10:48:41.816Z,33.58
2023-02-24T10:51:30.751Z,24.35
2023-02-24T10:54:33.232Z,25.55
2023-02-24T10:57:08.476Z,24.80
2023-02-24T11:00:17.629Z,24.85
2023-02-24T11:02:57.987Z,26.77
2023-02-24T11:06:02.432Z,28.20
2023-02-24T11:08:40.213Z,24.15
2023-02-24T11:11:53.960Z,25.47
2023-02-24T11:14:44.653Z,26.08
2023-02-24T11:17:27.005Z,25.67
2023-02-24T11:20:11.239Z,28.80
2023-02-24T11:22:45.784Z,31.75
2023-02-24T11:25:34.173Z,23.80
2023-02-24T11:28:38.593Z,27.70
2023-02-24T11:32:07.005Z,28.33
2023-02-24T11:35:21.058Z,31.77
2023-02-24T11:38:10.424Z,22.63
2023-02-24T11:40:49.423Z,24.27
2023-02-24T11:43:27.459Z,30.02
2023-02-24T11:46:21.239Z,29.42
2023-02-24T11:48:58.135Z,28.50
2023-02-24T11:51:37.154Z,31.75
2023-02-24T11:54:13.980Z,26.93
2023-02-24T11:56:55.802Z,28.48
2023-02-24T11:59:38.757Z,31.45
2023-02-24T12:02:47.008Z,26.60
2023-02-24T12:05:26.896Z,30.50
2023-02-24T12:08:13.430Z,26.57
2023-02-24T12:10:56.446Z,21.70
2023-02-24T12:13:36.668Z,32.35
2023-02-24T12:16:33.632Z,25.02
2023-02-24T12:19:24.329Z,30.55
2023-02-24T12:22:17.361Z,31.70
2023-02-24T12:24:52.291Z,26.90
2023-02-24T12:27:49.068Z,26.70
2023-02-24T12:30:38.851Z,25.58
2023-02-24T12:33:33.450Z,27.33
2023-02-24T12:36:36.087Z,26.27
2023-02-24T12:39:28.796Z,28.08
2023-02-24T12:42:29.011Z,32.53
2023-02-24T12:45:23.198Z,34.63
2023-02-24T12:48:15.178Z,24.85
2023-02-24T12:51:17.026Z,30.20
2023-02-24T12:54:15.797Z,30.48
2023-02-24T12:57:21.982Z,26.30
2023-02-24T12:59:57.674Z,25.48
2023-02-24T13:03:12.199Z,29.70
2023-02-24T13:06:28.709Z,23.43
2023-02-24T13:09:36.199Z,31.13
2023-02-24T13:12:51.945Z,31.48
2023-02-24T13:15:27.795Z,27.23
2023-02-24T13:17:59.939Z,27.65
2023-02-24T13:20:37.299Z,27.90
2023-02-24T13:23:22.513Z,28.92
2023-02-24T13:25:56.336Z,28.50
2023-02-24T13:28:33.322Z,31.42
2023-02-24T13:31:15.081Z,29.50
2023-02-24T13:33:48.437Z,25.80
2023-02-24T13:36:24.858Z,27.85
2023-02-24T13:39:21.820Z,26.30
2023-02-24T13:42:31.078Z,24.77
2023-02-24T13:45:09.211Z,29.58
2023-02-24T13:48:10.876Z,28.67
2023-02-24T13:51:14.181Z,22.92
2023-02-24T13:54:18.050Z,25.90
2023-02-24T13:57:26.549Z,23.63
2023-02-24T14:00:04.071Z,25.50
2023-02-24T14:02:45.878Z,31.03
2023-02-24T14:05:36.000Z,27.40
2023-02-24T14:08:08.450Z,28.95
2023-02-24T14:10:46.430Z,26.48
2023-02-24T14:13:51.000Z,30.05
2023-02-24T14:16:33.048Z,30.23
2023-02-24T14:19:14.119Z,26.67
2023-02-24T14:22:01.486Z,26.73
2023-02-24T14:24:33.831Z,29.52
2023-02-24T14:27:06.247Z,29.50
2023-02-24T14:29:44.183Z,28.13
2023-02-24T14:32:22.860Z,27.20
2023-02-24T14:34:55.448Z,25.75
2023-02-24T14:37:31.771Z,25.15
2023-02-24T14:40:05.925Z,26.00
2023-02-24T14:42:49.334Z,28.37
2023-02-24T14:45:26.545Z,30.27
2023-02-24T14:47:58.914Z,31.48
2023-02-24T14:50:34.140Z,27.85
2023-02-24T14:53:12.784Z,26.30
2023-02-24T14:55:50.405Z,30.97
2023-02-24T14:58:51.232Z,33.08
2023-02-24T15:01:44.267Z,31.90
2023-02-24T15:04:43.977Z,29.02
2023-02-24T15:07:24.551Z,33.00
2023-02-24T15:09:57.731Z,27.80
2023-02-24T15:12:35.260Z,26.50
2023-02-24T15:15:19.705Z,25.58
2023-02-24T15:18:04.236Z,28.70
2023-02-24T15:20:40.402Z,28.63
2023-02-24T15:23:33.064Z,33.83
2023-02-24T15:26:11.153Z,26.40
2023-02-24T15:28:43.110Z,28.85
2023-02-24T15:31:21.734Z,22.58
2023-02-24T15:34:00.427Z,32.15
2023-02-24T15:36:35.946Z,26.83
2023-02-24T15:39:18.393Z,30.02
2023-02-24T15:41:52.814Z,36.63
2023-02-24T15:44:30.814Z,30.45
2023-02-24T15:47:29.159Z,33.42
2023-02-24T15:50:01.110Z,31.63
2023-02-24T15:52:33.843Z,33.92
2023-02-24T15:55:06.882Z,26.15
2023-02-24T15:57:39.200Z,26.30
2023-02-24T16:00:21.434Z,29.35
2023-02-24T16:02:54.500Z,27.80
2023-02-24T16:05:27.168Z,29.20
2023-02-24T16:07:59.906Z,39.38
2023-02-24T16:10:31.856Z,35.70
2023-02-24T16:13:04.535Z,28.52
2023-02-24T16:15:39.374Z,30.40
2023-02-24T16:18:22.251Z,29.63
2023-02-24T16:20:56.694Z,24.52
2023-02-24T16:23:29.073Z,31.27
2023-02-24T16:26:00.969Z,27.33
2023-02-24T16:28:33.889Z,33.23
2023-02-24T16:31:09.159Z,28.08
2023-02-24T16:33:54.136Z,30.27
2023-02-24T16:36:28.482Z,26.95
2023-02-24T16:39:05.285Z,39.05
2023-02-24T16:41:37.243Z,32.50
2023-02-24T16:44:11.080Z,31.55
2023-02-24T16:46:45.171Z,28.10
2023-02-24T16:49:20.762Z,38.08
2023-02-24T16:51:52.736Z,30.77
2023-02-24T16:54:29.570Z,30.50
2023-02-24T16:57:01.990Z,29.95
2023-02-24T16:59:34.402Z,30.35
2023-02-24T17:02:06.405Z,30.73
2023-02-24T17:04:38.799Z,37.58
2023-02-24T17:07:11.325Z,29.57
2023-02-24T17:09:44.110Z,30.98
2023-02-24T17:12:21.882Z,27.00
2023-02-24T17:14:54.911Z,36.40
2023-02-24T17:17:26.863Z,30.77
2023-02-24T17:19:59.619Z,29.27
2023-02-24T17:22:32.152Z,27.02
2023-02-24T17:25:04.911Z,34.58
2023-02-24T17:27:36.806Z,35.97
2023-02-24T17:30:13.618Z,26.33
2023-02-24T17:32:46.147Z,28.10
2023-02-24T17:35:18.992Z,31.73
2023-02-24T17:37:51.541Z,24.40
2023-02-24T17:40:24.104Z,28.55
2023-02-24T17:42:55.998Z,30.00
2023-02-24T17:45:28.324Z,28.57
2023-02-24T17:48:00.650Z,34.63
2023-02-24T17:50:32.961Z,31.90
2023-02-24T17:53:04.841Z,35.20
2023-02-24T17:55:37.182Z,45.47
2023-02-24T17:58:09.506Z,41.50
2023-02-24T18:00:42.346Z,42.10
2023-02-24T18:03:15.476Z,38.70
2023-02-24T18:05:48.259Z,39.38
2023-02-24T18:08:20.989Z,34.45
2023-02-24T18:10:53.280Z,38.00
2023-02-24T18:13:27.350Z,38.20
2023-02-24T18:16:00.546Z,35.13
2023-02-24T18:18:32.450Z,37.75
2023-02-24T18:21:06.295Z,42.10
2023-02-24T18:23:40.442Z,38.23
2023-02-24T18:26:13.418Z,49.88
2023-02-24T18:28:45.430Z,46.03
2023-02-24T18:31:21.143Z,44.85
2023-02-24T18:33:55.693Z,38.45
2023-02-24T18:36:28.592Z,45.10
2023-02-24T18:39:00.940Z,48.10
2023-02-24T18:41:33.778Z,39.88
2023-02-24T18:44:05.894Z,43.47
2023-02-24T18:46:38.192Z,44.25
2023-02-24T18:49:11.575Z,41.33
2023-02-24T18:51:45.090Z,46.92
2023-02-24T18:54:17.072Z,50.15
2023-02-24T18:56:49.438Z,41.83
2023-02-24T18:59:21.371Z,45.95
2023-02-24T19:01:57.210Z,41.60
2023-02-24T19:04:29.537Z,51.03
2023-02-24T19:07:01.880Z,49.28
2023-02-24T19:09:34.084Z,47.50
2023-02-24T19:12:07.014Z,41.83
2023-02-24T19:14:38.928Z,49.20
2023-02-24T19:17:11.255Z,46.15
2023-02-24T19:19:43.515Z,47.88
2023-02-24T19:22:15.816Z,53.33
2023-02-24T19:24:47.731Z,49.15
2023-02-24T19:27:20.108Z,46.33
2023-02-24T19:29:54.341Z,42.78
2023-02-24T19:32:26.895Z,46.88
2023-02-24T19:34:58.927Z,54.13
2023-02-24T19:37:31.665Z,53.38
2023-02-24T19:40:03.963Z,46.27
2023-02-24T19:42:36.276Z,53.65
2023-02-24T19:45:09.231Z,117.78
2023-02-24T19:47:44.069Z,119.22
2023-02-24T19:50:17.085Z,63.13
2023-02-24T19:52:49.393Z,59.57
2023-02-24T19:55:21.322Z,47.05
2023-02-24T19:57:55.342Z,51.13
2023-02-24T20:00:27.252Z,46.72
2023-02-24T20:02:59.658Z,48.58
2023-02-24T20:05:31.620Z,51.10
2023-02-24T20:08:04.352Z,47.17
2023-02-24T20:10:36.252Z,47.95
2023-02-24T20:13:09.154Z,42.22
2023-02-24T20:15:41.321Z,45.88
2023-02-24T20:18:13.636Z,47.10
2023-02-24T20:20:46.457Z,48.30
2023-02-24T20:23:18.735Z,49.85
2023-02-24T20:25:57.080Z,48.40
2023-02-24T20:28:29.650Z,50.95
2023-02-24T20:31:09.628Z,45.20
2023-02-24T20:33:44.081Z,49.45
2023-02-24T20:36:23.978Z,47.58
2023-02-24T20:38:59.356Z,46.63
2023-02-24T20:41:31.272Z,40.25
2023-02-24T20:44:03.633Z,45.73
2023-02-24T20:46:35.877Z,50.40
2023-02-24T20:49:11.862Z,45.72
2023-02-24T20:51:43.977Z,49.50
2023-02-24T20:54:16.875Z,49.28
2023-02-24T20:56:49.230Z,54.10
2023-02-24T20:59:22.568Z,53.95
2023-02-24T21:01:54.946Z,52.00
2023-02-24T21:04:27.747Z,44.10
2023-02-24T21:06:59.861Z,59.72
2023-02-24T21:09:37.508Z,68.97
2023-02-24T21:12:10.044Z,63.78
2023-02-24T21:14:43.885Z,58.90
2023-02-24T21:17:16.223Z,50.42
2023-02-24T21:19:48.608Z,46.08
2023-02-24T21:22:20.579Z,43.73
2023-02-24T21:24:52.853Z,47.88
2023-02-24T21:27:26.274Z,41.05
2023-02-24T21:29:58.622Z,43.00
2023-02-24T21:32:31.080Z,44.63
2023-02-24T21:35:04.215Z,47.20
2023-02-24T21:37:36.106Z,47.38
2023-02-24T21:40:12.552Z,49.90
2023-02-24T21:42:47.025Z,47.63
2023-02-24T21:45:19.726Z,48.38
2023-02-24T21:47:51.762Z,46.60
2023-02-24T21:50:24.039Z,48.00
2023-02-24T21:52:56.020Z,46.38
2023-02-24T21:55:28.630Z,50.63
2023-02-24T21:58:00.534Z,46.33
2023-02-24T22:00:33.358Z,42.47
2023-02-24T22:03:05.257Z,47.58
2023-02-24T22:05:38.113Z,37.30
2023-02-24T22:08:09.993Z,40.78
2023-02-24T22:10:41.870Z,37.60
2023-02-24T22:13:13.810Z,37.53
2023-02-24T22:15:46.192Z,35.15
2023-02-24T22:18:19.579Z,33.85
2023-02-24T22:20:53.717Z,34.55
2023-02-24T22:23:25.625Z,39.72
2023-02-24T22:25:57.893Z,30.73
2023-02-24T22:28:29.855Z,32.63
2023-02-24T22:31:03.085Z,37.28
2023-02-24T22:33:40.685Z,32.67
2023-02-24T22:36:25.832Z,27.15
2023-02-24T22:38:59.955Z,21.67
2023-02-24T22:41:35.575Z,20.05
2023-02-24T22:44:07.523Z,21.83
2023-02-24T22:46:39.986Z,20.42
2023-02-24T22:49:11.972Z,20.77
2023-02-24T22:51:45.641Z,19.13
2023-02-24T22:54:18.968Z,21.58
2023-02-24T22:56:51.263Z,20.33
2023-02-24T22:59:23.178Z,21.58
2023-02-24T23:01:55.458Z,19.58
2023-02-24T23:04:29.291Z,18.10
2023-02-24T23:07:02.553Z,34.10
2023-02-24T23:09:34.559Z,20.63
2023-02-24T23:12:07.074Z,18.08
2023-02-24T23:14:38.967Z,22.25
2023-02-24T23:17:11.227Z,17.77
2023-02-24T23:19:43.122Z,18.77
2023-02-24T23:22:15.877Z,19.83
2023-02-24T23:24:47.863Z,21.50
2023-02-24T23:27:21.764Z,18.92
2023-02-24T23:29:53.635Z,21.50
2023-02-24T23:32:25.976Z,20.40
2023-02-24T23:34:58.355Z,21.90
2023-02-24T23:37:31.039Z,18.40
2023-02-24T23:40:08.007Z,22.27
2023-02-24T23:42:44.292Z,23.43
2023-02-24T23:45:16.959Z,19.90
2023-02-24T23:47:49.623Z,22.65
2023-02-24T23:50:21.565Z,21.73
2023-02-24T23:52:54.066Z,21.35
2023-02-24T23:55:25.966Z,20.30
2023-02-24T23:57:58.348Z,21.30
